Time;durP1;ratioP1;P1;durP2;ratioP2;P2;SDS_P1;SDS_P2;PMS_P1;PMS_P2;Temp;Humidity;BMP_temperature;BMP_pressure;BME280_temperature;BME280_humidity;BME280_pressure;Samples;Min_cycle;Max_cycle;Signal;HPM_P1;HPM_P2
2023/07/30 00:02:04;;;;;;;16.73;2.45;;;14.40;99.90;;;;;;5103764;28;20081;-91
2023/07/30 00:04:30;;;;;;;17.83;2.95;;;14.40;99.90;;;;;;5105118;28;20047;-93
2023/07/30 00:06:56;;;;;;;13.98;3.28;;;14.40;99.90;;;;;;5102037;28;20586;-93
2023/07/30 00:09:21;;;;;;;10.73;2.28;;;14.40;99.90;;;;;;5106400;28;20040;-91
2023/07/30 00:11:47;;;;;;;20.65;2.90;;;14.40;99.90;;;;;;5103352;28;20457;-93
2023/07/30 00:14:12;;;;;;;19.17;3.17;;;14.30;99.90;;;;;;5107107;28;20043;-91
2023/07/30 00:16:38;;;;;;;12.45;2.35;;;14.30;99.90;;;;;;5103913;28;20032;-92
2023/07/30 00:19:04;;;;;;;18.83;2.63;;;14.30;99.90;;;;;;5118863;27;20500;-91
2023/07/30 00:21:29;;;;;;;15.95;2.72;;;14.30;99.90;;;;;;5105611;28;20121;-91
2023/07/30 00:23:55;;;;;;;19.30;2.50;;;14.40;99.90;;;;;;5107571;28;20034;-91
2023/07/30 00:26:21;;;;;;;12.20;2.25;;;14.30;99.90;;;;;;5122258;27;20020;-92
2023/07/30 00:28:46;;;;;;;20.55;2.72;;;14.30;99.90;;;;;;5124681;28;20024;-88
2023/07/30 00:31:12;;;;;;;17.67;3.00;;;14.30;99.90;;;;;;5123844;28;20461;-91
2023/07/30 00:33:37;;;;;;;20.10;2.30;;;14.20;99.90;;;;;;5102411;28;20020;-92
2023/07/30 00:36:03;;;;;;;16.88;3.35;;;14.20;99.90;;;;;;5104095;28;20059;-92
2023/07/30 00:38:29;;;;;;;16.90;3.47;;;14.20;99.90;;;;;;5101756;28;20070;-91
2023/07/30 00:40:55;;;;;;;17.92;2.88;;;14.20;99.90;;;;;;5101897;28;20083;-91
2023/07/30 00:43:21;;;;;;;20.80;2.50;;;14.10;99.90;;;;;;5102666;28;20084;-90
2023/07/30 00:45:47;;;;;;;18.48;2.70;;;14.20;99.90;;;;;;5105949;28;20032;-90
2023/07/30 00:48:14;;;;;;;18.65;3.25;;;14.10;99.90;;;;;;5094142;28;20020;-91
2023/07/30 00:50:40;;;;;;;26.45;5.63;;;14.10;99.90;;;;;;5095172;28;20094;-91
2023/07/30 00:53:08;;;;;;;14.82;3.20;;;14.10;99.90;;;;;;5098898;28;20125;-91
2023/07/30 00:55:35;;;;;;;19.02;3.25;;;14.10;99.90;;;;;;5093837;28;20055;-92
2023/07/30 00:58:02;;;;;;;20.75;3.33;;;14.00;99.90;;;;;;5092316;28;20043;-87
2023/07/30 01:00:29;;;;;;;16.40;2.90;;;14.00;99.90;;;;;;5106385;28;20039;-90
2023/07/30 01:02:56;;;;;;;17.20;3.42;;;14.00;99.90;;;;;;5104888;28;20027;-88
2023/07/30 01:05:21;;;;;;;14.18;2.78;;;14.00;99.90;;;;;;5099851;28;20475;-91
2023/07/30 01:07:47;;;;;;;10.73;2.03;;;14.00;99.90;;;;;;5099238;28;20035;-90
2023/07/30 01:10:13;;;;;;;20.00;3.10;;;14.00;99.90;;;;;;5113711;28;20100;-91
2023/07/30 01:12:40;;;;;;;20.98;3.50;;;13.90;99.90;;;;;;5114402;28;20028;-91
2023/07/30 01:15:07;;;;;;;14.75;2.67;;;13.90;99.90;;;;;;5113115;28;20022;-91
2023/07/30 01:17:33;;;;;;;15.75;3.13;;;13.90;99.90;;;;;;5112935;28;20241;-91
2023/07/30 01:19:59;;;;;;;19.33;2.83;;;13.80;99.90;;;;;;5115326;28;20071;-91
2023/07/30 01:22:24;;;;;;;14.45;2.92;;;13.90;99.90;;;;;;5134467;27;20011;-86
2023/07/30 01:24:50;;;;;;;15.68;2.92;;;13.90;99.90;;;;;;5120768;28;20032;-90
2023/07/30 01:27:25;;;;;;;18.75;2.65;;;13.90;99.90;;;;;;5113330;28;20500;-89
2023/07/30 01:30:00;;;;;;;19.75;2.85;;;13.90;99.90;;;;;;5114618;28;20114;-89
2023/07/30 01:32:27;;;;;;;13.57;2.33;;;13.90;99.90;;;;;;5124291;28;20026;-89
2023/07/30 01:34:55;;;;;;;22.60;4.22;;;13.90;99.90;;;;;;5123616;28;20039;-90
2023/07/30 01:37:21;;;;;;;13.32;2.53;;;13.90;99.90;;;;;;5126535;28;20043;-88
2023/07/30 01:39:49;;;;;;;16.42;2.38;;;13.90;99.90;;;;;;5119088;28;20041;-89
2023/07/30 01:42:15;;;;;;;18.38;2.83;;;13.90;99.90;;;;;;5114694;28;20028;-90
2023/07/30 01:44:40;;;;;;;17.85;2.65;;;13.90;99.90;;;;;;5113903;28;20042;-87
2023/07/30 01:47:06;;;;;;;19.75;3.15;;;13.90;99.90;;;;;;5115307;28;20027;-87
2023/07/30 01:49:32;;;;;;;15.68;2.35;;;13.90;99.90;;;;;;5114430;28;20032;-89
2023/07/30 01:51:57;;;;;;;17.35;2.95;;;13.90;99.90;;;;;;5121930;28;20031;-89
2023/07/30 01:54:23;;;;;;;17.05;2.30;;;13.90;99.90;;;;;;5127901;28;20027;-87
2023/07/30 01:56:49;;;;;;;13.05;3.15;;;13.90;99.90;;;;;;5129528;28;20441;-88
2023/07/30 01:59:14;;;;;;;11.52;1.90;;;13.90;99.90;;;;;;5117061;28;20516;-88
2023/07/30 02:01:41;;;;;;;7.05;1.80;;;13.90;99.90;;;;;;5112798;28;20025;-90
2023/07/30 02:04:07;;;;;;;15.18;1.60;;;13.90;99.90;;;;;;5112656;28;20020;-88
2023/07/30 02:06:32;;;;;;;12.98;2.05;;;13.90;99.90;;;;;;5122582;27;20036;-85
2023/07/30 02:08:58;;;;;;;7.07;1.67;;;14.00;99.90;;;;;;5132165;28;20024;-90
2023/07/30 02:11:24;;;;;;;5.43;1.40;;;14.00;99.90;;;;;;5129672;28;20028;-88
2023/07/30 02:13:49;;;;;;;9.50;1.42;;;13.90;99.90;;;;;;5115589;28;20023;-91
2023/07/30 02:16:15;;;;;;;11.25;1.33;;;14.00;99.90;;;;;;5119451;28;20019;-89
2023/07/30 02:18:40;;;;;;;13.93;1.92;;;14.00;99.90;;;;;;5117543;28;20357;-89
2023/07/30 02:21:06;;;;;;;13.52;2.45;;;14.00;99.90;;;;;;5114654;28;20105;-90
2023/07/30 02:23:32;;;;;;;8.23;1.55;;;13.90;99.90;;;;;;5113981;28;20049;-90
2023/07/30 02:25:57;;;;;;;9.18;1.70;;;13.90;99.90;;;;;;5114220;28;20026;-89
2023/07/30 02:28:23;;;;;;;8.77;1.90;;;13.90;99.90;;;;;;5115323;28;20351;-90
2023/07/30 02:30:49;;;;;;;15.52;2.30;;;13.90;99.90;;;;;;5116353;28;20116;-89
2023/07/30 02:33:15;;;;;;;10.15;1.85;;;13.90;99.90;;;;;;5116413;28;20036;-90
2023/07/30 02:35:43;;;;;;;12.63;1.90;;;13.90;99.90;;;;;;5116899;28;20027;-92
2023/07/30 02:38:09;;;;;;;12.55;2.00;;;14.00;99.90;;;;;;5116377;28;20055;-91
2023/07/30 02:40:34;;;;;;;11.23;1.85;;;14.00;99.90;;;;;;5117999;28;20043;-88
2023/07/30 02:43:00;;;;;;;13.02;1.75;;;14.00;99.90;;;;;;5117136;28;20016;-90
2023/07/30 02:45:26;;;;;;;13.70;2.13;;;14.00;99.90;;;;;;5117699;28;20027;-91
2023/07/30 02:47:51;;;;;;;11.60;1.98;;;14.00;99.90;;;;;;5117780;28;20038;-90
2023/07/30 02:50:17;;;;;;;10.75;1.90;;;14.00;99.90;;;;;;5116804;28;20023;-91
2023/07/30 02:52:43;;;;;;;8.43;2.20;;;14.00;99.90;;;;;;5117850;28;20051;-91
2023/07/30 02:55:09;;;;;;;11.98;1.67;;;14.00;99.90;;;;;;5117027;28;20031;-89
2023/07/30 02:57:34;;;;;;;8.73;1.60;;;14.00;99.90;;;;;;5121752;28;20046;-90
2023/07/30 03:00:00;;;;;;;5.53;1.30;;;14.00;99.90;;;;;;5137424;27;20035;-89
2023/07/30 03:02:26;;;;;;;13.02;1.88;;;13.90;99.90;;;;;;5137582;28;20062;-88
2023/07/30 03:04:51;;;;;;;13.68;2.30;;;13.90;99.90;;;;;;5134358;28;20065;-90
2023/07/30 03:07:18;;;;;;;11.68;1.98;;;13.90;99.90;;;;;;5139675;28;20042;-86
2023/07/30 03:09:44;;;;;;;8.68;1.52;;;13.80;99.90;;;;;;5136692;28;20031;-90
2023/07/30 03:12:09;;;;;;;10.20;1.80;;;13.80;99.90;;;;;;5135274;28;20039;-89
2023/07/30 03:14:35;;;;;;;6.18;1.52;;;13.80;99.90;;;;;;5135095;28;20059;-89
2023/07/30 03:17:00;;;;;;;8.00;1.80;;;13.80;99.90;;;;;;5127797;28;20104;-91
2023/07/30 03:19:26;;;;;;;8.55;1.80;;;13.70;99.90;;;;;;5120419;28;20024;-91
2023/07/30 03:21:51;;;;;;;14.85;1.95;;;13.70;99.90;;;;;;5118172;28;20511;-88
2023/07/30 03:24:17;;;;;;;8.32;1.60;;;13.70;99.90;;;;;;5117175;28;20019;-89
2023/07/30 03:26:43;;;;;;;7.53;1.65;;;13.70;99.90;;;;;;5116713;28;20388;-90
2023/07/30 03:29:08;;;;;;;9.05;1.85;;;13.70;99.90;;;;;;5116569;28;20032;-89
2023/07/30 03:31:34;;;;;;;6.72;1.60;;;13.70;99.90;;;;;;5116528;28;20024;-90
2023/07/30 03:34:00;;;;;;;5.65;1.60;;;13.70;99.90;;;;;;5118403;28;20023;-90
2023/07/30 03:36:25;;;;;;;14.23;1.88;;;13.60;99.90;;;;;;5122923;28;20034;-89
2023/07/30 03:38:51;;;;;;;13.68;1.65;;;13.70;99.90;;;;;;5117512;28;20065;-90
2023/07/30 03:41:17;;;;;;;12.10;1.75;;;13.70;99.90;;;;;;5115431;28;20028;-90
2023/07/30 03:43:42;;;;;;;7.78;1.80;;;13.70;99.90;;;;;;5117596;28;20020;-89
2023/07/30 03:46:08;;;;;;;8.38;1.50;;;13.70;99.90;;;;;;5116749;28;20515;-89
2023/07/30 03:48:34;;;;;;;13.30;1.90;;;13.60;99.90;;;;;;5120326;28;20015;-90
2023/07/30 03:50:59;;;;;;;9.55;1.52;;;13.60;99.90;;;;;;5133145;28;20032;-88
2023/07/30 03:53:25;;;;;;;9.30;1.42;;;13.60;99.90;;;;;;5126874;28;20027;-90
2023/07/30 03:55:50;;;;;;;8.85;2.33;;;13.60;99.90;;;;;;5115877;28;20032;-89
2023/07/30 03:58:16;;;;;;;5.85;1.30;;;13.60;99.90;;;;;;5116235;27;20107;-90
2023/07/30 04:00:42;;;;;;;10.70;1.50;;;13.60;99.90;;;;;;5116399;28;20110;-90
2023/07/30 04:03:07;;;;;;;9.60;1.27;;;13.60;99.90;;;;;;5116331;28;20388;-89
2023/07/30 04:05:33;;;;;;;7.43;1.38;;;13.60;99.90;;;;;;5114732;28;20023;-90
2023/07/30 04:07:59;;;;;;;10.02;1.15;;;13.50;99.90;;;;;;5116172;28;20027;-89
2023/07/30 04:10:24;;;;;;;4.30;1.10;;;13.50;99.90;;;;;;5115619;28;20084;-91
2023/07/30 04:12:50;;;;;;;4.75;1.02;;;13.60;99.90;;;;;;5115919;28;20099;-90
2023/07/30 04:15:16;;;;;;;6.43;1.63;;;13.50;99.90;;;;;;5114634;28;20499;-90
2023/07/30 04:17:42;;;;;;;7.20;1.88;;;13.60;99.90;;;;;;5111868;28;20027;-89
2023/07/30 04:20:09;;;;;;;8.55;1.42;;;13.60;99.90;;;;;;5109992;28;20028;-90
2023/07/30 04:22:35;;;;;;;9.10;1.30;;;13.50;99.90;;;;;;5115666;28;20119;-90
2023/07/30 04:25:01;;;;;;;7.30;1.13;;;13.50;99.90;;;;;;5116124;28;20023;-88
2023/07/30 04:27:27;;;;;;;13.20;1.40;;;13.50;99.90;;;;;;5114203;28;20488;-89
2023/07/30 04:29:52;;;;;;;6.20;1.42;;;13.50;99.90;;;;;;5115060;28;20178;-87
2023/07/30 04:32:18;;;;;;;4.72;1.00;;;13.50;99.90;;;;;;5122409;28;20032;-88
2023/07/30 04:34:44;;;;;;;10.60;1.35;;;13.40;99.90;;;;;;5121893;28;20023;-89
2023/07/30 04:37:09;;;;;;;3.92;1.10;;;13.50;99.90;;;;;;5120421;28;20055;-88
2023/07/30 04:39:36;;;;;;;5.68;1.10;;;13.40;99.90;;;;;;5117341;28;20036;-88
2023/07/30 04:42:02;;;;;;;7.22;1.20;;;13.40;99.90;;;;;;5115848;28;20499;-91
2023/07/30 04:44:28;;;;;;;4.63;1.00;;;13.40;99.90;;;;;;5113844;28;20034;-89
2023/07/30 04:46:53;;;;;;;3.30;0.88;;;13.40;99.90;;;;;;5113838;28;20031;-90
2023/07/30 04:49:19;;;;;;;9.48;1.23;;;13.50;99.90;;;;;;5115567;28;20035;-89
2023/07/30 04:51:45;;;;;;;5.20;1.02;;;13.50;99.90;;;;;;5115817;28;20142;-90
2023/07/30 04:54:10;;;;;;;5.28;1.00;;;13.50;99.90;;;;;;5133254;28;20035;-86
2023/07/30 04:56:36;;;;;;;2.92;1.33;;;13.40;99.90;;;;;;5121164;28;20059;-88
2023/07/30 04:59:03;;;;;;;5.35;1.05;;;13.40;99.90;;;;;;5114295;28;20088;-90
2023/07/30 05:01:28;;;;;;;5.68;1.05;;;13.40;99.90;;;;;;5114259;28;20034;-89
2023/07/30 05:03:54;;;;;;;11.95;1.40;;;13.40;99.90;;;;;;5113275;28;20625;-89
2023/07/30 05:06:20;;;;;;;5.40;1.05;;;13.40;99.90;;;;;;5113914;28;20071;-89
2023/07/30 05:08:45;;;;;;;8.73;1.13;;;13.40;99.90;;;;;;5115214;28;20026;-90
2023/07/30 05:11:11;;;;;;;6.70;1.45;;;13.40;99.90;;;;;;5114402;28;20112;-90
2023/07/30 05:13:36;;;;;;;4.32;1.10;;;13.40;99.90;;;;;;5113764;28;20024;-89
2023/07/30 05:16:02;;;;;;;9.80;1.40;;;13.40;99.90;;;;;;5112993;28;20084;-90
2023/07/30 05:18:28;;;;;;;9.30;1.08;;;13.50;99.90;;;;;;5112804;28;20027;-90
2023/07/30 05:20:54;;;;;;;5.00;0.90;;;13.50;99.90;;;;;;5112804;28;20035;-89
2023/07/30 05:23:20;;;;;;;6.72;1.10;;;13.50;99.90;;;;;;5113687;28;20031;-88
2023/07/30 05:25:46;;;;;;;4.03;0.90;;;13.50;99.90;;;;;;5113618;28;20136;-88
2023/07/30 05:28:12;;;;;;;5.28;1.05;;;13.50;99.90;;;;;;5120151;28;20069;-88
2023/07/30 05:30:37;;;;;;;11.82;1.45;;;13.50;99.90;;;;;;5132847;28;20026;-89
2023/07/30 05:33:03;;;;;;;5.15;1.17;;;13.50;99.90;;;;;;5128637;28;20024;-88
2023/07/30 05:35:29;;;;;;;4.85;1.08;;;13.50;99.90;;;;;;5116998;28;20038;-89
2023/07/30 05:37:54;;;;;;;9.95;2.72;;;13.60;99.90;;;;;;5114668;28;20047;-90
2023/07/30 05:40:21;;;;;;;9.85;1.50;;;13.60;99.90;;;;;;5114649;28;20107;-91
2023/07/30 05:42:47;;;;;;;4.32;1.20;;;13.60;99.90;;;;;;5113839;28;20024;-90
2023/07/30 05:45:13;;;;;;;5.40;1.15;;;13.70;99.90;;;;;;5112671;28;20027;-89
2023/07/30 05:47:38;;;;;;;2.53;0.90;;;13.70;99.90;;;;;;5113996;28;20031;-90
2023/07/30 05:50:05;;;;;;;8.95;1.17;;;13.70;99.90;;;;;;5112902;28;20076;-89
2023/07/30 05:52:30;;;;;;;7.60;1.48;;;13.70;99.90;;;;;;5114086;28;20420;-90
2023/07/30 05:54:56;;;;;;;7.88;1.27;;;13.80;99.90;;;;;;5113097;28;20035;-89
2023/07/30 05:57:22;;;;;;;6.38;1.17;;;13.80;99.90;;;;;;5113957;28;20027;-90
2023/07/30 05:59:47;;;;;;;6.95;1.15;;;13.80;99.90;;;;;;5112410;28;20035;-90
2023/07/30 06:02:13;;;;;;;6.57;1.20;;;13.80;99.90;;;;;;5112491;28;20026;-89
2023/07/30 06:04:38;;;;;;;6.70;1.17;;;13.90;99.90;;;;;;5112674;28;20070;-89
2023/07/30 06:07:04;;;;;;;11.95;1.10;;;13.90;99.90;;;;;;5113587;28;20047;-90
2023/07/30 06:09:30;;;;;;;11.15;1.23;;;13.90;99.90;;;;;;5113955;28;20031;-91
2023/07/30 06:11:57;;;;;;;11.63;1.38;;;13.90;99.90;;;;;;5113790;28;20031;-90
2023/07/30 06:14:23;;;;;;;8.65;1.45;;;14.00;99.90;;;;;;5112666;28;20027;-89
2023/07/30 06:16:49;;;;;;;8.93;1.17;;;14.00;99.90;;;;;;5112256;28;20023;-91
2023/07/30 06:19:15;;;;;;;7.40;1.35;;;14.00;99.90;;;;;;5112598;28;20122;-89
2023/07/30 06:21:40;;;;;;;11.32;1.65;;;14.00;99.90;;;;;;5112256;28;20024;-89
2023/07/30 06:24:06;;;;;;;3.20;1.25;;;14.00;99.90;;;;;;5112774;28;20114;-93
2023/07/30 06:26:32;;;;;;;9.15;1.58;;;14.00;99.90;;;;;;5113934;28;20032;-91
2023/07/30 06:28:58;;;;;;;6.25;1.02;;;14.00;99.90;;;;;;5112346;28;20388;-90
2023/07/30 06:31:24;;;;;;;8.77;1.30;;;14.00;99.90;;;;;;5111964;28;20015;-90
2023/07/30 06:33:49;;;;;;;8.73;1.27;;;13.90;99.90;;;;;;5113560;28;20020;-89
2023/07/30 06:36:15;;;;;;;8.02;1.23;;;13.90;99.90;;;;;;5113094;28;20028;-89
2023/07/30 06:38:40;;;;;;;8.20;1.60;;;14.00;99.90;;;;;;5117838;28;20031;-88
2023/07/30 06:41:06;;;;;;;8.10;1.20;;;13.90;99.90;;;;;;5131916;28;20035;-90
2023/07/30 06:43:32;;;;;;;6.80;1.00;;;14.00;99.90;;;;;;5118588;28;20032;-90
2023/07/30 06:45:58;;;;;;;4.80;1.10;;;14.00;99.90;;;;;;5113735;28;20509;-90
2023/07/30 06:48:23;;;;;;;6.22;1.67;;;14.00;99.90;;;;;;5112534;28;20024;-89
2023/07/30 06:50:49;;;;;;;14.57;1.70;;;14.00;99.90;;;;;;5113021;28;20035;-90
2023/07/30 06:53:15;;;;;;;9.43;1.60;;;14.10;99.90;;;;;;5124533;28;20028;-87
2023/07/30 06:55:40;;;;;;;8.27;1.45;;;14.10;99.90;;;;;;5128820;28;20020;-86
2023/07/30 06:58:06;;;;;;;8.63;1.42;;;14.10;99.90;;;;;;5130589;28;20049;-87
2023/07/30 07:00:31;;;;;;;11.05;1.60;;;14.10;99.90;;;;;;5128734;28;20043;-88
2023/07/30 07:02:57;;;;;;;9.50;1.70;;;14.10;99.90;;;;;;5130656;28;20034;-88
2023/07/30 07:05:23;;;;;;;7.53;1.25;;;14.10;99.90;;;;;;5125739;28;20028;-89
2023/07/30 07:07:48;;;;;;;6.75;0.98;;;14.20;99.90;;;;;;5118094;28;20034;-88
2023/07/30 07:10:14;;;;;;;6.47;1.30;;;14.20;99.90;;;;;;5126675;28;20028;-89
2023/07/30 07:12:40;;;;;;;9.93;2.17;;;14.20;99.90;;;;;;5119254;28;20020;-89
2023/07/30 07:15:06;;;;;;;8.68;1.30;;;14.20;99.90;;;;;;5116790;28;20039;-89
2023/07/30 07:17:32;;;;;;;12.68;1.55;;;14.20;99.90;;;;;;5117426;28;20026;-89
2023/07/30 07:19:58;;;;;;;5.57;1.13;;;14.30;99.90;;;;;;5117372;28;20618;-90
2023/07/30 07:22:24;;;;;;;6.88;1.60;;;14.30;99.90;;;;;;5115955;28;20031;-88
2023/07/30 07:24:52;;;;;;;5.25;1.40;;;14.30;99.90;;;;;;5115808;28;20115;-86
2023/07/30 07:27:23;;;;;;;9.73;1.70;;;14.30;99.90;;;;;;5115337;28;20544;-89
2023/07/30 07:29:48;;;;;;;6.03;1.38;;;14.30;99.90;;;;;;5118516;28;20165;-88
2023/07/30 07:32:14;;;;;;;5.07;1.17;;;14.40;99.90;;;;;;5119872;28;20015;-89
2023/07/30 07:34:39;;;;;;;5.30;1.00;;;14.40;99.90;;;;;;5123442;28;20125;-87
2023/07/30 07:37:05;;;;;;;12.18;1.65;;;14.40;99.90;;;;;;5123212;28;20047;-89
2023/07/30 07:39:33;;;;;;;10.57;2.28;;;14.50;99.90;;;;;;5118513;28;20537;-87
2023/07/30 07:41:59;;;;;;;9.43;1.50;;;14.50;99.90;;;;;;5116296;28;20161;-88
2023/07/30 07:44:24;;;;;;;3.85;1.10;;;14.50;99.90;;;;;;5115805;28;20066;-85
2023/07/30 07:46:50;;;;;;;8.38;1.30;;;14.50;99.90;;;;;;5115161;28;20653;-87
2023/07/30 07:49:16;;;;;;;10.18;1.52;;;14.50;99.90;;;;;;5114598;28;20031;-90
2023/07/30 07:51:41;;;;;;;8.27;1.10;;;14.60;99.90;;;;;;5115709;28;20533;-90
2023/07/30 07:54:07;;;;;;;7.63;1.42;;;14.60;99.90;;;;;;5114550;28;20019;-87
2023/07/30 07:56:33;;;;;;;4.93;1.20;;;14.60;99.90;;;;;;5114716;28;20085;-89
2023/07/30 07:58:59;;;;;;;11.45;1.20;;;14.60;99.90;;;;;;5115191;28;20030;-89
2023/07/30 08:01:24;;;;;;;12.88;1.33;;;14.70;99.90;;;;;;5115074;28;20115;-89
2023/07/30 08:03:50;;;;;;;3.83;1.20;;;14.80;99.90;;;;;;5115684;28;20058;-88
2023/07/30 08:06:16;;;;;;;6.38;1.63;;;14.80;99.90;;;;;;5116215;28;20051;-89
2023/07/30 08:08:42;;;;;;;5.15;1.23;;;14.80;99.90;;;;;;5115947;28;20059;-89
2023/07/30 08:11:08;;;;;;;3.70;1.15;;;14.80;99.90;;;;;;5116122;28;20058;-91
2023/07/30 08:13:35;;;;;;;4.32;1.02;;;14.80;99.90;;;;;;5114537;28;20027;-88
2023/07/30 08:16:01;;;;;;;5.45;1.20;;;14.80;99.90;;;;;;5115459;28;20043;-89
2023/07/30 08:18:27;;;;;;;7.20;1.17;;;14.80;99.90;;;;;;5115568;28;20035;-89
2023/07/30 08:20:53;;;;;;;7.30;1.35;;;14.80;99.90;;;;;;5114732;28;20111;-88
2023/07/30 08:23:19;;;;;;;5.55;1.15;;;14.80;99.90;;;;;;5113533;28;20557;-88
2023/07/30 08:25:44;;;;;;;7.50;1.25;;;14.90;99.90;;;;;;5126065;27;20072;-87
2023/07/30 08:28:10;;;;;;;6.13;0.95;;;14.90;99.90;;;;;;5130068;27;20038;-88
2023/07/30 08:30:36;;;;;;;3.88;0.70;;;14.90;99.90;;;;;;5115357;28;20585;-90
2023/07/30 08:33:01;;;;;;;2.05;0.90;;;14.90;99.90;;;;;;5114522;28;20085;-89
2023/07/30 08:35:27;;;;;;;4.72;0.98;;;14.90;99.90;;;;;;5113777;28;20027;-89
2023/07/30 08:37:53;;;;;;;7.45;1.35;;;14.90;99.90;;;;;;5121744;27;20488;-91
2023/07/30 08:40:23;;;;;;;7.20;1.23;;;14.90;99.90;;;;;;5133246;27;20035;-90
2023/07/30 08:42:52;;;;;;;7.65;0.88;;;14.90;99.90;;;;;;5114910;27;20099;-91
2023/07/30 08:45:18;;;;;;;12.32;1.10;;;15.00;99.90;;;;;;5118956;27;20024;-91
2023/07/30 08:47:45;;;;;;;7.03;1.45;;;15.10;99.90;;;;;;5119833;28;20020;-90
2023/07/30 08:50:10;;;;;;;4.65;1.33;;;15.10;99.90;;;;;;5131092;28;20097;-89
2023/07/30 08:52:36;;;;;;;9.07;1.67;;;15.10;99.90;;;;;;5133961;27;20020;-90
2023/07/30 08:55:03;;;;;;;6.05;0.82;;;15.10;99.90;;;;;;5119982;27;20015;-91
2023/07/30 08:57:30;;;;;;;7.03;0.90;;;15.10;99.90;;;;;;5111667;28;20047;-89
2023/07/30 09:00:06;;;;;;;6.30;1.17;;;15.00;99.90;;;;;;5103388;28;20077;-89
2023/07/30 09:02:46;;;;;;;7.70;1.10;;;15.00;99.90;;;;;;5115302;27;20038;-91
2023/07/30 09:05:12;;;;;;;9.40;1.30;;;15.00;99.90;;;;;;5122001;27;20027;-92
2023/07/30 09:07:38;;;;;;;3.83;0.93;;;15.00;99.90;;;;;;5123854;27;20430;-89
2023/07/30 09:10:04;;;;;;;4.68;1.23;;;15.00;99.90;;;;;;5121995;27;20015;-90
2023/07/30 09:12:33;;;;;;;9.25;1.27;;;15.00;99.90;;;;;;5121286;27;20016;-91
2023/07/30 09:15:00;;;;;;;4.28;1.38;;;15.00;99.90;;;;;;5118744;27;20449;-90
2023/07/30 09:17:26;;;;;;;6.22;1.48;;;15.00;99.90;;;;;;5111411;27;20012;-92
2023/07/30 09:19:52;;;;;;;6.10;0.75;;;15.00;99.90;;;;;;5113897;28;20507;-91
2023/07/30 09:22:28;;;;;;;7.43;1.35;;;15.10;99.90;;;;;;5116632;27;20038;-91
2023/07/30 09:24:58;;;;;;;3.53;0.85;;;15.20;99.90;;;;;;5133551;27;20030;-90
2023/07/30 09:27:26;;;;;;;4.00;0.85;;;15.20;99.90;;;;;;5120014;27;20024;-89
2023/07/30 09:29:56;;;;;;;4.13;0.77;;;15.30;99.90;;;;;;5107972;28;20081;-92
2023/07/30 09:32:30;;;;;;;3.38;0.90;;;15.40;99.90;;;;;;5105398;28;20027;-92
2023/07/30 09:35:09;;;;;;;3.65;0.95;;;15.50;99.90;;;;;;5104517;28;20088;-91
2023/07/30 09:37:41;;;;;;;4.00;0.95;;;15.60;99.90;;;;;;5107687;28;20075;-90
2023/07/30 09:40:12;;;;;;;4.13;0.98;;;15.70;99.90;;;;;;5113436;28;20058;-91
2023/07/30 09:42:41;;;;;;;6.43;0.95;;;15.80;99.90;;;;;;5104448;28;20026;-91
2023/07/30 09:45:16;;;;;;;9.57;0.80;;;15.80;99.90;;;;;;5105624;28;20032;-91
2023/07/30 09:47:46;;;;;;;6.55;1.73;;;15.80;99.90;;;;;;5102564;28;20017;-91
2023/07/30 09:50:12;;;;;;;;;;;15.90;99.90;;;;;;5102044;28;20039;-90
2023/07/30 09:52:38;;;;;;;6.57;0.82;;;15.90;99.90;;;;;;5104506;28;19904;-90
2023/07/30 09:55:07;;;;;;;4.32;0.98;;;16.00;99.90;;;;;;5104979;28;20044;-91
2023/07/30 09:57:32;;;;;;;2.15;0.50;;;16.10;99.90;;;;;;5105116;28;20032;-92
2023/07/30 09:59:58;;;;;;;7.22;1.10;;;16.10;99.90;;;;;;5101424;28;20032;-93
2023/07/30 10:02:28;;;;;;;6.93;1.10;;;16.20;99.90;;;;;;5104894;28;20020;-92
2023/07/30 10:04:56;;;;;;;2.47;0.60;;;16.30;99.90;;;;;;5102601;28;20020;-91
2023/07/30 10:07:24;;;;;;;3.75;0.73;;;16.30;99.90;;;;;;5108155;28;20028;-91
2023/07/30 10:09:54;;;;;;;6.05;0.98;;;16.40;99.90;;;;;;5111356;28;20039;-91
2023/07/30 10:12:28;;;;;;;3.17;0.75;;;16.40;99.90;;;;;;5115770;28;20432;-90
2023/07/30 10:14:54;;;;;;;4.10;0.73;;;16.50;99.90;;;;;;5106512;28;20028;-92
2023/07/30 10:17:20;;;;;;;7.00;0.95;;;16.60;99.90;;;;;;5102325;28;20020;-93
2023/07/30 10:19:50;;;;;;;1.15;0.50;;;16.60;99.90;;;;;;5103250;28;20101;-89
2023/07/30 10:22:19;;;;;;;1.88;0.73;;;16.70;99.90;;;;;;5103156;28;20041;-92
2023/07/30 10:24:59;;;;;;;4.15;0.70;;;16.70;99.90;;;;;;5102517;28;20035;-93
2023/07/30 10:27:27;;;;;;;1.42;0.60;;;16.80;99.90;;;;;;5104368;28;20096;-91
2023/07/30 10:30:13;;;;;;;3.83;0.73;;;16.80;99.90;;;;;;5121422;28;20038;-88
2023/07/30 10:33:03;;;;;;;3.47;0.60;;;16.80;99.90;;;;;;5120953;28;20027;-89
2023/07/30 10:35:45;;;;;;;6.60;1.40;;;17.00;99.90;;;;;;5117413;28;20020;-89
2023/07/30 10:38:24;;;;;;;2.63;0.68;;;17.00;99.90;;;;;;5115966;28;20031;-90
2023/07/30 10:41:10;;;;;;;2.90;0.57;;;17.10;99.90;;;;;;5110460;28;20123;-90
2023/07/30 10:43:41;;;;;;;2.85;0.60;;;17.10;99.90;;;;;;5109261;28;20027;-91
2023/07/30 10:46:12;;;;;;;2.95;0.55;;;17.20;99.90;;;;;;5110856;28;20483;-90
2023/07/30 10:48:43;;;;;;;3.75;0.65;;;17.30;99.90;;;;;;5116298;28;20114;-90
2023/07/30 10:51:11;;;;;;;4.15;0.82;;;17.40;99.90;;;;;;5118763;28;20024;-89
2023/07/30 10:53:37;;;;;;;4.53;1.00;;;17.50;99.90;;;;;;5118999;28;20043;-90
2023/07/30 10:56:04;;;;;;;0.75;0.40;;;17.50;99.90;;;;;;5119299;28;20024;-90
2023/07/30 10:58:31;;;;;;;3.28;0.93;;;17.50;99.90;;;;;;5120418;28;20016;-91
2023/07/30 11:00:57;;;;;;;3.75;1.17;;;17.60;99.90;;;;;;5116790;28;20062;-89
2023/07/30 11:03:27;;;;;;;1.08;0.50;;;17.60;99.90;;;;;;5110945;28;20020;-90
2023/07/30 11:05:53;;;;;;;5.43;0.80;;;17.70;99.90;;;;;;5106457;28;20173;-93
2023/07/30 11:08:19;;;;;;;4.57;0.65;;;17.70;99.90;;;;;;5108526;28;20023;-90
2023/07/30 11:10:46;;;;;;;4.65;1.00;;;17.60;99.80;;;;;;5113782;28;20024;-90
2023/07/30 11:13:15;;;;;;;5.95;1.50;;;17.60;99.80;;;;;;5107890;28;20536;-89
2023/07/30 11:15:43;;;;;;;4.72;1.90;;;17.60;99.90;;;;;;5104100;28;20028;-88
2023/07/30 11:18:09;;;;;;;2.45;1.10;;;17.60;99.90;;;;;;5117628;28;20023;-89
2023/07/30 11:20:35;;;;;;;4.13;0.68;;;17.60;99.90;;;;;;5119120;28;20049;-88
2023/07/30 11:23:01;;;;;;;3.78;1.27;;;17.50;99.90;;;;;;5122114;28;20026;-87
2023/07/30 11:25:26;;;;;;;3.65;1.10;;;17.40;99.90;;;;;;5116542;28;20030;-89
2023/07/30 11:27:52;;;;;;;3.15;1.00;;;17.40;99.90;;;;;;5107020;27;20385;-89
2023/07/30 11:30:19;;;;;;;3.28;1.10;;;17.40;99.90;;;;;;5104897;28;20400;-87
2023/07/30 11:32:45;;;;;;;5.03;1.17;;;17.40;99.90;;;;;;5105981;28;20035;-90
2023/07/30 11:35:12;;;;;;;6.63;1.42;;;17.50;99.90;;;;;;5106146;28;20110;-89
2023/07/30 11:37:40;;;;;;;4.20;1.30;;;17.60;99.90;;;;;;5109308;28;20044;-89
2023/07/30 11:40:14;;;;;;;4.68;1.48;;;17.70;99.90;;;;;;5111568;28;20028;-88
2023/07/30 11:42:42;;;;;;;6.18;1.08;;;17.80;99.90;;;;;;5108693;28;20024;-89
2023/07/30 11:45:21;;;;;;;6.03;0.77;;;17.90;99.90;;;;;;5107067;28;20085;-89
2023/07/30 11:47:48;;;;;;;4.50;0.77;;;17.90;99.90;;;;;;5117841;27;20111;-87
2023/07/30 11:50:14;;;;;;;3.80;0.98;;;17.90;99.90;;;;;;5124882;27;20040;-89
2023/07/30 11:52:56;;;;;;;3.55;0.70;;;18.00;99.90;;;;;;5133912;27;20442;-90
2023/07/30 11:55:24;;;;;;;2.22;0.52;;;18.00;99.90;;;;;;5137313;27;20030;-88
2023/07/30 11:57:51;;;;;;;2.40;0.60;;;17.90;99.90;;;;;;5138798;27;20094;-88
2023/07/30 12:00:21;;;;;;;3.70;0.40;;;17.90;99.70;;;;;;5153981;27;20020;-88
2023/07/30 12:02:47;;;;;;;3.22;0.68;;;17.90;99.30;;;;;;5138113;27;20015;-88
2023/07/30 12:05:12;;;;;;;4.07;0.50;;;18.00;99.30;;;;;;5135665;27;20042;-89
2023/07/30 12:07:42;;;;;;;1.42;0.40;;;18.00;99.20;;;;;;5135561;27;20026;-88
2023/07/30 12:10:12;;;;;;;4.05;0.73;;;18.10;98.80;;;;;;5135842;27;20415;-88
2023/07/30 12:12:52;;;;;;;1.30;0.50;;;18.10;98.70;;;;;;5141957;27;20027;-89
2023/07/30 12:15:18;;;;;;;5.05;0.80;;;18.20;98.40;;;;;;5143783;27;20031;-88
2023/07/30 12:17:44;;;;;;;1.83;0.60;;;18.30;98.30;;;;;;5138482;27;20072;-89
2023/07/30 12:20:11;;;;;;;4.95;1.17;;;18.40;98.30;;;;;;5136240;27;20084;-89
2023/07/30 12:22:38;;;;;;;4.13;1.30;;;18.50;98.20;;;;;;5136242;27;20037;-88
2023/07/30 12:25:04;;;;;;;2.53;0.70;;;18.50;97.50;;;;;;5135986;27;20107;-89
2023/07/30 12:27:30;;;;;;;1.90;0.50;;;18.40;97.50;;;;;;5134844;27;20023;-88
2023/07/30 12:29:56;;;;;;;4.15;0.60;;;18.40;97.20;;;;;;5134572;27;20099;-88
2023/07/30 12:32:21;;;;;;;5.97;1.30;;;18.40;97.10;;;;;;5134418;27;20066;-88
2023/07/30 12:34:47;;;;;;;3.60;0.60;;;18.40;97.20;;;;;;5135639;27;20027;-88
2023/07/30 12:37:12;;;;;;;2.60;0.63;;;18.40;97.20;;;;;;5135679;27;20058;-88
2023/07/30 12:39:38;;;;;;;3.67;0.90;;;18.40;97.10;;;;;;5134511;27;20515;-88
2023/07/30 12:42:04;;;;;;;2.60;0.90;;;18.40;97.00;;;;;;5138987;27;20038;-88